Provisional Data: Moose Creek near Plymptonville, PA


Please select a monitoring station.
Please select start date.
Please select start date.

Toggle Unit: C/F Toggle Unit: C/F
Sample Time Temperature (C) Temperature (F) Specific Conductivity (mS/cm) pH   Turbidity (NTU+) DO (mg/L)
5/4/2021 12:00:00 AM 10.48 50.864 0.109 6.65 9.97 10.42
5/4/2021 12:15:00 AM 10.48 50.864 0.111 6.67 14.94 10.43
5/4/2021 12:30:00 AM 10.48 50.864 0.113 6.68 13.04 10.42
5/4/2021 12:45:00 AM 10.47 50.846 0.115 6.7 13.35 10.43
5/4/2021 1:00:00 AM 10.46 50.828 0.116 6.71 12 10.43
5/4/2021 1:15:00 AM 10.45 50.81 0.117 6.73 12.1 10.44
5/4/2021 1:30:00 AM 10.47 50.846 0.119 6.76 11.84 10.43
5/4/2021 1:45:00 AM 10.49 50.882 0.12 6.8 10.98 10.44
5/4/2021 2:00:00 AM 10.52 50.936 0.12 6.82 12.94 10.42
5/4/2021 2:15:00 AM 10.55 50.99 0.12 6.84 11.7 10.42
5/4/2021 2:30:00 AM 10.57 51.026 0.12 6.85 13.31 10.41
5/4/2021 2:45:00 AM 10.59 51.062 0.12 6.86 16.4 10.42
5/4/2021 3:00:00 AM 10.6 51.08 0.119 6.86 11.2 10.4
5/4/2021 3:15:00 AM 10.62 51.116 0.119 6.86 9.87 10.4
5/4/2021 3:30:00 AM 10.64 51.152 0.119 6.86 10.85 10.4
5/4/2021 3:45:00 AM 10.63 51.134 0.119 6.86 9.81 10.4
5/4/2021 4:00:00 AM 10.62 51.116 0.119 6.86 9.92 10.41
5/4/2021 4:15:00 AM 10.61 51.098 0.119 6.85 9.22 10.41
5/4/2021 4:30:00 AM 10.6 51.08 0.119 6.85 10.58 10.41
5/4/2021 4:45:00 AM 10.6 51.08 0.119 6.85 10.06 10.41
5/4/2021 5:00:00 AM 10.59 51.062 0.119 6.85 6.27 10.42
5/4/2021 5:15:00 AM 10.59 51.062 0.119 6.85 11.99 10.42
5/4/2021 5:30:00 AM 10.59 51.062 0.119 6.85 5.48 10.42
5/4/2021 5:45:00 AM 10.6 51.08 0.12 6.85 5.43 10.43
5/4/2021 6:00:00 AM 10.6 51.08 0.12 6.85 5.08 10.43
5/4/2021 6:15:00 AM 10.62 51.116 0.12 6.85 5.74 10.43
5/4/2021 6:30:00 AM 10.63 51.134 0.12 6.85 4.25 10.44
5/4/2021 6:45:00 AM 10.65 51.17 0.12 6.85 4.25 10.43
5/4/2021 7:00:00 AM 10.67 51.206 0.12 6.85 4.19 10.43
5/4/2021 7:15:00 AM 10.71 51.278 0.119 6.85 4.28 10.43
5/4/2021 7:30:00 AM 10.76 51.368 0.119 6.85 4.17 10.42
5/4/2021 7:45:00 AM 10.81 51.458 0.119 6.85 59.24 10.41
5/4/2021 8:00:00 AM 10.89 51.602 0.119 6.85 5.1 10.4
5/4/2021 8:15:00 AM 10.98 51.764 0.119 6.85 4.35 10.38
5/4/2021 8:30:00 AM 11.05 51.89 0.119 6.85 4.7 10.37
5/4/2021 8:45:00 AM 11.12 52.016 0.119 6.85 5.04 10.34
5/4/2021 9:00:00 AM 11.24 52.232 0.119 6.85 4.49 10.32
5/4/2021 9:15:00 AM 11.29 52.322 0.118 6.85 4.75 10.29
5/4/2021 9:30:00 AM 11.33 52.394 0.118 6.84 3.59 10.29
5/4/2021 9:45:00 AM 11.39 52.502 0.118 6.85 4.96 10.27
5/4/2021 10:00:00 AM 11.42 52.556 0.118 6.84 5.1 10.26
5/4/2021 10:15:00 AM 11.46 52.628 0.118 6.84 4.54 10.25
5/4/2021 10:30:00 AM 11.5 52.7 0.118 6.84 4.53 10.25
5/4/2021 10:45:00 AM 11.52 52.736 0.118 6.83 4.09 10.23
5/4/2021 11:00:00 AM 11.51 52.718 0.118 6.83 4.35 10.24
5/4/2021 11:15:00 AM 11.63 52.934 0.117 6.83 4.77 10.23
5/4/2021 11:30:00 AM 11.7 53.06 0.117 6.84 5.01 10.2
5/4/2021 11:45:00 AM 11.8 53.24 0.117 6.84 4.16 10.18
5/4/2021 12:00:00 PM 11.95 53.51 0.117 6.84 4.6 10.15
5/4/2021 12:15:00 PM 12.03 53.654 0.117 6.84 4.42 10.13
5/4/2021 12:30:00 PM 12.12 53.816 0.117 6.84 4.01 10.1
5/4/2021 12:45:00 PM 12.15 53.87 0.117 6.83 31.12 10.08
5/4/2021 1:00:00 PM 12.2 53.96 0.117 6.83 4.86 10.07
5/4/2021 1:15:00 PM 12.27 54.086 0.117 6.83 3.91 10.06
5/4/2021 1:30:00 PM 12.35 54.23 0.117 6.83 4.3 10.04
5/4/2021 1:45:00 PM 12.37 54.266 0.117 6.83 4.81 10.02
5/4/2021 2:00:00 PM 12.36 54.248 0.117 6.82 3.93 10.02
5/4/2021 2:15:00 PM 12.39 54.302 0.117 6.83 4.02 10.01
5/4/2021 2:30:00 PM 12.42 54.356 0.117 6.83 3.94 10.01
5/4/2021 2:45:00 PM 12.45 54.41 0.116 6.82 4.45 10
5/4/2021 3:00:00 PM 12.46 54.428 0.116 6.83 3.83 9.99
5/4/2021 3:15:00 PM 12.46 54.428 0.117 6.82 3.89 9.99
5/4/2021 3:30:00 PM 12.46 54.428 0.117 6.82 3.63 10
5/4/2021 3:45:00 PM 12.45 54.41 0.117 6.82 3.78 9.99
5/4/2021 4:00:00 PM 12.39 54.302 0.115 6.82 4.08 10
5/4/2021 4:15:00 PM 12.33 54.194 0.117 6.82 3.89 10
5/4/2021 4:30:00 PM 12.29 54.122 0.117 6.82 3.9 10.02
5/4/2021 4:45:00 PM 12.24 54.032 0.117 6.81 3.73 10.03
5/4/2021 5:00:00 PM 12.2 53.96 0.117 6.81 5.35 10.04
5/4/2021 5:15:00 PM 12.18 53.924 0.118 6.82 10.88 10.05
5/4/2021 5:30:00 PM 12.15 53.87 0.118 6.82 3.66 10.05
5/4/2021 5:45:00 PM 12.11 53.798 0.118 6.82 3.58 10.05
5/4/2021 6:00:00 PM 12.06 53.708 0.118 6.81 11.56 10.06
5/4/2021 6:15:00 PM 12.01 53.618 0.118 6.81 5.74 10.07
5/4/2021 6:30:00 PM 11.95 53.51 0.118 6.81 10.78 10.08
5/4/2021 6:45:00 PM 11.91 53.438 0.117 6.8 10.52 10.1
5/4/2021 7:00:00 PM 11.86 53.348 0.118 6.8 11 10.11
5/4/2021 7:15:00 PM 11.81 53.258 0.118 6.79 285.86 10.12
5/4/2021 7:30:00 PM 11.75 53.15 0.118 6.77 9.86 10.13
5/4/2021 7:45:00 PM 11.71 53.078 0.118 6.76 11.61 10.14
5/4/2021 8:00:00 PM 11.65 52.97 0.118 6.75 9.95 10.15
5/4/2021 8:15:00 PM 11.59 52.862 0.118 6.75 10.43 10.17
5/4/2021 8:30:00 PM 11.54 52.772 0.118 6.75 3.57 10.17
5/4/2021 8:45:00 PM 11.48 52.664 0.118 6.74 3.88 10.2
5/4/2021 9:00:00 PM 11.44 52.592 0.118 6.74 4.34 10.22
5/4/2021 9:15:00 PM 11.41 52.538 0.118 6.74 3.73 10.22
5/4/2021 9:30:00 PM 11.39 52.502 0.118 6.74 3.84 10.23
5/4/2021 9:45:00 PM 11.37 52.466 0.118 6.74 3.88 10.23
5/4/2021 10:00:00 PM 11.37 52.466 0.118 6.76 3.96 10.23
5/4/2021 10:15:00 PM 11.39 52.502 0.118 6.78 3.96 10.22
5/4/2021 10:30:00 PM 11.39 52.502 0.118 6.79 3.68 10.23
5/4/2021 10:45:00 PM 11.38 52.484 0.118 6.79 3.61 10.23
5/4/2021 11:00:00 PM 11.37 52.466 0.118 6.79 3.68 10.23
5/4/2021 11:15:00 PM 11.36 52.448 0.118 6.78 3.71 10.24
5/4/2021 11:30:00 PM 11.34 52.412 0.118 6.78 3.42 10.24
5/4/2021 11:45:00 PM 11.32 52.376 0.118 6.77 3.88 10.24
5/5/2021 12:00:00 AM 11.28 52.304 0.118 6.77 8.72 10.25
5/5/2021 12:15:00 AM 11.25 52.25 0.118 6.76 9.89 10.26
5/5/2021 12:30:00 AM 11.22 52.196 0.118 6.75 4.41 10.27
5/5/2021 12:45:00 AM 11.19 52.142 0.118 6.75 4.3 10.27
5/5/2021 1:00:00 AM 11.17 52.106 0.118 6.74 4.94 10.27
5/5/2021 1:15:00 AM 11.15 52.07 0.118 6.74 5 10.28
5/5/2021 1:30:00 AM 11.12 52.016 0.118 6.74 41.71 10.29
5/5/2021 1:45:00 AM 11.09 51.962 0.117 6.74 99.62 10.29
5/5/2021 2:00:00 AM 11.06 51.908 0.117 6.74 95.18 10.3
5/5/2021 2:15:00 AM 11.04 51.872 0.117 6.74 102.68 10.3
5/5/2021 2:30:00 AM 11.02 51.836 0.117 6.74 89.1 10.3
5/5/2021 2:45:00 AM 11.01 51.818 0.117 6.73 126.39 10.3
5/5/2021 3:00:00 AM 11.01 51.818 0.117 6.74 94.71 10.31
5/5/2021 3:15:00 AM 11 51.8 0.117 6.75 121.23 10.32
5/5/2021 3:30:00 AM 10.99 51.782 0.117 6.75 59.76 10.32
5/5/2021 3:45:00 AM 10.98 51.764 0.117 6.75 992.88 10.32
5/5/2021 4:00:00 AM 10.97 51.746 0.117 6.75 5.16 10.32
5/5/2021 4:15:00 AM 10.96 51.728 0.117 6.75 4.58 10.32
5/5/2021 4:30:00 AM 10.95 51.71 0.117 6.75 4.6 10.32
5/5/2021 4:45:00 AM 10.95 51.71 0.117 6.76 4.44 10.32
5/5/2021 5:00:00 AM 10.94 51.692 0.117 6.76 4.52 10.32
5/5/2021 5:15:00 AM 10.93 51.674 0.116 6.76 4.76 10.33
5/5/2021 5:30:00 AM 10.92 51.656 0.116 6.76 4.32 10.33
5/5/2021 5:45:00 AM 10.91 51.638 0.116 6.76 4.03 10.33
5/5/2021 6:00:00 AM 10.89 51.602 0.116 6.76 4.76 10.34
5/5/2021 6:15:00 AM 10.88 51.584 0.116 6.76 4.63 10.35
5/5/2021 6:30:00 AM 10.86 51.548 0.116 6.76 5 10.36
5/5/2021 6:45:00 AM 10.84 51.512 0.116 6.76 4.51 10.36
5/5/2021 7:00:00 AM 10.83 51.494 0.115 6.76 4.37 10.37
5/5/2021 7:15:00 AM 10.81 51.458 0.115 6.76 4.55 10.37
5/5/2021 7:30:00 AM 10.79 51.422 0.115 6.76 4.66 10.38
5/5/2021 7:45:00 AM 10.77 51.386 0.115 6.76 4.72 10.38
5/5/2021 8:00:00 AM 10.76 51.368 0.115 6.76 4.83 10.4
5/5/2021 8:15:00 AM 10.76 51.368 0.115 6.76 4.83 10.4
5/5/2021 8:30:00 AM 10.75 51.35 0.116 6.77 4.82 10.4
5/5/2021 8:45:00 AM 10.77 51.386 0.116 6.78 4.58 10.4
5/5/2021 9:00:00 AM 10.78 51.404 0.117 6.78 4.38 10.4
5/5/2021 9:15:00 AM 10.78 51.404 0.118 6.79 6.17 10.4
5/5/2021 9:30:00 AM 10.78 51.404 0.12 6.8 5.83 10.4
5/5/2021 9:45:00 AM 10.76 51.368 0.121 6.81 8.11 10.4
5/5/2021 10:00:00 AM 10.76 51.368 0.122 6.82 6.24 10.42
5/5/2021 10:15:00 AM 10.76 51.368 0.122 6.83 4.73 10.42
5/5/2021 10:30:00 AM 10.76 51.368 0.123 6.84 40.56 10.41
5/5/2021 10:45:00 AM 10.75 51.35 0.123 6.84 4.35 10.42
5/5/2021 11:00:00 AM 10.73 51.314 0.123 6.85 6.27 10.42
5/5/2021 11:15:00 AM 10.7 51.26 0.124 6.86 4.91 10.44
5/5/2021 11:30:00 AM 10.69 51.242 0.123 6.86 17.07 10.45
5/5/2021 11:45:00 AM 10.7 51.26 0.124 6.87 5.29 10.45
5/5/2021 12:00:00 PM 10.72 51.296 0.125 6.87 5.14 10.45
5/5/2021 12:15:00 PM 10.77 51.386 0.125 6.88 6.3 10.43
5/5/2021 12:30:00 PM 10.78 51.404 0.125 6.88 5.39 10.43
5/5/2021 12:45:00 PM 10.79 51.422 0.125 6.88 5.27 10.44
5/5/2021 1:00:00 PM 10.84 51.512 0.126 6.88 5.28 10.43
5/5/2021 1:15:00 PM 10.8 51.44 0.126 6.88 5.53 10.43
5/5/2021 1:30:00 PM 10.78 51.404 0.126 6.88 5.87 10.43
5/5/2021 1:45:00 PM 10.78 51.404 0.126 6.88 38.33 10.45
5/5/2021 2:00:00 PM 10.82 51.476 0.126 6.89 753.5 10.43
5/5/2021 2:15:00 PM 10.85 51.53 0.126 6.89 47.18 10.43
5/5/2021 2:30:00 PM 10.92 51.656 0.126 6.89 1550.56 10.42
5/5/2021 2:45:00 PM 11.03 51.854 0.125 6.89 117.98 10.39
5/5/2021 3:00:00 PM 11.01 51.818 0.125 6.89 135.19 10.37
5/5/2021 3:15:00 PM 11.01 51.818 0.125 6.89 83.56 10.38
5/5/2021 3:30:00 PM 10.97 51.746 0.125 6.88 312.72 10.39
5/5/2021 3:45:00 PM 10.9 51.62 0.125 6.88 32.78 10.41
5/5/2021 4:00:00 PM 10.82 51.476 0.125 6.88 400.9 10.44
5/5/2021 4:15:00 PM 10.76 51.368 0.125 6.87 104.9 10.46
5/5/2021 4:30:00 PM 10.72 51.296 0.125 6.87 76.55 10.45
5/5/2021 4:45:00 PM 10.67 51.206 0.125 6.87 646.37 10.47
5/5/2021 5:00:00 PM 10.6 51.08 0.125 6.87 4.18 10.49
5/5/2021 5:15:00 PM 10.53 50.954 0.125 6.86 4.36 10.52
5/5/2021 5:30:00 PM 10.46 50.828 0.125 6.86 6.24 10.53
5/5/2021 5:45:00 PM 10.39 50.702 0.125 6.86 4.16 10.55
5/5/2021 6:00:00 PM 10.31 50.558 0.124 6.86 4.24 10.56
5/5/2021 6:15:00 PM 10.24 50.432 0.123 6.85 5.57 10.58
5/5/2021 6:30:00 PM 10.18 50.324 0.124 6.85 4.51 10.6
5/5/2021 6:45:00 PM 10.12 50.216 0.124 6.85 4.27 10.61
5/5/2021 7:00:00 PM 10.06 50.108 0.124 6.84 4.34 10.63
5/5/2021 7:15:00 PM 9.99 49.982 0.124 6.84 4.24 10.64
5/5/2021 7:30:00 PM 9.93 49.874 0.124 6.84 4.24 10.66
5/5/2021 7:45:00 PM 9.87 49.766 0.124 6.84 4.12 10.69
5/5/2021 8:00:00 PM 9.81 49.658 0.124 6.83 3.99 10.7
5/5/2021 8:15:00 PM 9.76 49.568 0.124 6.83 4.22 10.72
5/5/2021 8:30:00 PM 9.71 49.478 0.124 6.83 4.1 10.73
5/5/2021 8:45:00 PM 9.67 49.406 0.124 6.83 4.02 10.75
5/5/2021 9:00:00 PM 9.62 49.316 0.124 6.83 4.75 10.76
5/5/2021 9:15:00 PM 9.58 49.244 0.124 6.82 4.08 10.78
5/5/2021 9:30:00 PM 9.52 49.136 0.124 6.82 4.63 10.79
5/5/2021 9:45:00 PM 9.48 49.064 0.124 6.82 4.11 10.8
5/5/2021 10:00:00 PM 9.43 48.974 0.124 6.82 5.62 10.81
5/5/2021 10:15:00 PM 9.39 48.902 0.123 6.82 4.18 10.82
5/5/2021 10:30:00 PM 9.34 48.812 0.124 6.82 3.97 10.83
5/5/2021 10:45:00 PM 9.31 48.758 0.123 6.82 3.92 10.84
5/5/2021 11:00:00 PM 9.27 48.686 0.123 6.81 4.05 10.86
5/5/2021 11:15:00 PM 9.23 48.614 0.124 6.81 4.06 10.86
5/5/2021 11:30:00 PM 9.18 48.524 0.123 6.81 3.96 10.88
5/5/2021 11:45:00 PM 9.14 48.452 0.123 6.81 4.02 10.89
5/6/2021 12:00:00 AM 9.11 48.398 0.123 6.81 4.07 10.9
5/6/2021 12:15:00 AM 9.08 48.344 0.123 6.81 4.06 10.91
5/6/2021 12:30:00 AM 9.05 48.29 0.123 6.81 3.93 10.91
5/6/2021 12:45:00 AM 9.03 48.254 0.123 6.8 4.07 10.92
5/6/2021 1:00:00 AM 8.99 48.182 0.123 6.8 4.03 10.92
5/6/2021 1:15:00 AM 8.95 48.11 0.123 6.8 4.18 10.93
5/6/2021 1:30:00 AM 8.92 48.056 0.123 6.8 4.06 10.95
5/6/2021 1:45:00 AM 8.89 48.002 0.123 6.8 4.21 10.96
5/6/2021 2:00:00 AM 8.85 47.93 0.123 6.8 4.17 10.96
5/6/2021 2:15:00 AM 8.81 47.858 0.123 6.8 4.23 10.98
5/6/2021 2:30:00 AM 8.79 47.822 0.123 6.8 4.14 10.98
5/6/2021 2:45:00 AM 8.76 47.768 0.123 6.8 4.15 10.99
5/6/2021 3:00:00 AM 8.73 47.714 0.123 6.79 4.25 11
5/6/2021 3:15:00 AM 8.71 47.678 0.123 6.79 4.18 11.02
5/6/2021 3:30:00 AM 8.69 47.642 0.123 6.79 4.21 11.03
5/6/2021 3:45:00 AM 8.65 47.57 0.123 6.79 4.15 11.03
5/6/2021 4:00:00 AM 8.62 47.516 0.123 6.79 3.94 11.04
5/6/2021 4:15:00 AM 8.59 47.462 0.123 6.79 4.04 11.05
5/6/2021 4:30:00 AM 8.57 47.426 0.123 6.79 4.1 11.06
5/6/2021 4:45:00 AM 8.54 47.372 0.122 6.79 4.07 11.05
5/6/2021 5:00:00 AM 8.5 47.3 0.122 6.78 4.13 11.08
5/6/2021 5:15:00 AM 8.47 47.246 0.122 6.78 4.3 11.08
5/6/2021 5:30:00 AM 8.43 47.174 0.122 6.78 4.17 11.09
5/6/2021 5:45:00 AM 8.4 47.12 0.122 6.78 4.15 11.11
5/6/2021 6:00:00 AM 8.37 47.066 0.122 6.78 4.14 11.12
5/6/2021 6:15:00 AM 8.34 47.012 0.122 6.78 4.07 11.13
5/6/2021 6:30:00 AM 8.32 46.976 0.122 6.78 4.03 11.14
5/6/2021 6:45:00 AM 8.31 46.958 0.122 6.78 4.07 11.15
5/6/2021 7:00:00 AM 8.32 46.976 0.122 6.78 165.56 11.16
5/6/2021 7:15:00 AM 8.35 47.03 0.122 6.78 4.16 11.15
5/6/2021 7:30:00 AM 8.4 47.12 0.122 6.78 4.13 11.14
5/6/2021 7:45:00 AM 8.46 47.228 0.121 6.79 4.17 11.12
5/6/2021 8:00:00 AM 8.52 47.336 0.121 6.79 4.11 11.12
5/6/2021 8:15:00 AM 8.6 47.48 0.121 6.79 4.07 11.09
5/6/2021 8:30:00 AM 8.67 47.606 0.121 6.79 4.08 11.08
5/6/2021 8:45:00 AM 8.77 47.786 0.121 6.79 4.12 11.06
5/6/2021 9:00:00 AM 8.86 47.948 0.121 6.79 4.02 11.03
5/6/2021 9:15:00 AM 8.93 48.074 0.121 6.79 4.04 11
5/6/2021 9:30:00 AM 9.05 48.29 0.121 6.79 3.99 10.98
5/6/2021 9:45:00 AM 9.11 48.398 0.121 6.79 3.9 10.95
5/6/2021 10:00:00 AM 9.25 48.65 0.121 6.79 3.96 10.93
5/6/2021 10:15:00 AM 9.43 48.974 0.12 6.79 3.85 10.88
5/6/2021 10:30:00 AM 9.53 49.154 0.12 6.79 3.88 10.85
5/6/2021 10:45:00 AM 9.74 49.532 0.12 6.8 3.76 10.79
5/6/2021 11:00:00 AM 9.79 49.622 0.12 6.8 3.71 10.78
5/6/2021 11:15:00 AM 9.88 49.784 0.12 6.8 3.82 10.75
5/6/2021 11:30:00 AM 9.91 49.838 0.12 6.8 3.85 10.74
5/6/2021 11:45:00 AM 9.91 49.838 0.12 6.8 3.87 10.73
5/6/2021 12:00:00 PM 9.91 49.838 0.12 6.8 5.61 10.73
5/6/2021 12:15:00 PM 9.95 49.91 0.12 6.8 4.92 10.72
5/6/2021 12:30:00 PM 9.96 49.928 0.119 6.79 4.64 10.72
5/6/2021 12:45:00 PM 9.97 49.946 0.119 6.79 4.75 10.71
5/6/2021 1:00:00 PM 10.02 50.036 0.119 6.8 4.53 10.7
5/6/2021 1:15:00 PM 10.11 50.198 0.119 6.79 4.67 10.68
5/6/2021 1:30:00 PM 10.19 50.342 0.119 6.8 4.77 10.65
5/6/2021 1:45:00 PM 10.27 50.486 0.119 6.79 4.57 10.63
5/6/2021 2:00:00 PM 10.35 50.63 0.119 6.79 4.63 10.61
5/6/2021 2:15:00 PM 10.39 50.702 0.119 6.79 4.73 10.59
5/6/2021 2:30:00 PM 10.39 50.702 0.119 6.79 4.58 10.59
5/6/2021 2:45:00 PM 10.39 50.702 0.118 6.79 4.59 10.58
5/6/2021 3:00:00 PM 10.38 50.684 0.118 6.79 4.61 10.59
5/6/2021 3:15:00 PM 10.36 50.648 0.118 6.79 4.58 10.59
5/6/2021 3:30:00 PM 10.34 50.612 0.118 6.79 4.6 10.58
5/6/2021 3:45:00 PM 10.33 50.594 0.118 6.79 4.62 10.59
5/6/2021 4:00:00 PM 10.3 50.54 0.118 6.78 3.81 10.59
5/6/2021 4:15:00 PM 10.28 50.504 0.118 6.78 3.58 10.6
5/6/2021 4:30:00 PM 10.27 50.486 0.118 6.78 4.11 10.6
5/6/2021 4:45:00 PM 10.24 50.432 0.117 6.78 3.75 10.6
5/6/2021 5:00:00 PM 10.21 50.378 0.117 6.78 3.73 10.61
5/6/2021 5:15:00 PM 10.16 50.288 0.117 6.77 3.69 10.62
5/6/2021 5:30:00 PM 10.09 50.162 0.118 6.77 3.63 10.63
5/6/2021 5:45:00 PM 10.02 50.036 0.117 6.77 3.97 10.64
5/6/2021 6:00:00 PM 9.95 49.91 0.117 6.77 3.74 10.66
5/6/2021 6:15:00 PM 9.87 49.766 0.117 6.76 3.65 10.68
5/6/2021 6:30:00 PM 9.79 49.622 0.117 6.76 3.65 10.7
5/6/2021 6:45:00 PM 9.72 49.496 0.117 6.76 3.76 10.71
5/6/2021 7:00:00 PM 9.64 49.352 0.117 6.75 3.61 10.74
5/6/2021 7:15:00 PM 9.57 49.226 0.117 6.75 3.82 10.75
5/6/2021 7:30:00 PM 9.5 49.1 0.117 6.74 3.84 10.77
5/6/2021 7:45:00 PM 9.42 48.956 0.117 6.74 3.89 10.79
5/6/2021 8:00:00 PM 9.35 48.83 0.117 6.74 3.84 10.82
5/6/2021 8:15:00 PM 9.27 48.686 0.117 6.73 3.74 10.83
5/6/2021 8:30:00 PM 9.19 48.542 0.116 6.73 4.68 10.85
5/6/2021 8:45:00 PM 9.11 48.398 0.116 6.73 5.02 10.88
5/6/2021 9:00:00 PM 9.04 48.272 0.116 6.73 4.21 10.91
5/6/2021 9:15:00 PM 8.96 48.128 0.116 6.73 4.3 10.92
5/6/2021 9:30:00 PM 8.89 48.002 0.116 6.73 3.96 10.94
5/6/2021 9:45:00 PM 8.83 47.894 0.116 6.73 3.74 10.95
5/6/2021 10:00:00 PM 8.76 47.768 0.116 6.73 3.8 10.97
5/6/2021 10:15:00 PM 8.69 47.642 0.116 6.73 4.23 10.99
5/6/2021 10:30:00 PM 8.63 47.534 0.116 6.72 4.05 11.01
5/6/2021 10:45:00 PM 8.56 47.408 0.116 6.72 4.55 11.03
5/6/2021 11:00:00 PM 8.5 47.3 0.116 6.72 3.51 11.05
5/6/2021 11:15:00 PM 8.44 47.192 0.115 6.72 3.54 11.06
5/6/2021 11:30:00 PM 8.38 47.084 0.115 6.71 3.62 11.07
5/6/2021 11:45:00 PM 8.33 46.994 0.115 6.71 3.58 11.09
5/7/2021 12:00:00 AM 8.28 46.904 0.115 6.71 14.86 11.1
5/7/2021 12:15:00 AM 8.22 46.796 0.115 6.72 14.36 11.12
5/7/2021 12:30:00 AM 8.16 46.688 0.115 6.71 14.32 11.14
5/7/2021 12:45:00 AM 8.1 46.58 0.115 6.71 14.03 11.15
5/7/2021 1:00:00 AM 8.05 46.49 0.115 6.71 14.13 11.17
5/7/2021 1:15:00 AM 8 46.4 0.115 6.71 14.07 11.18
5/7/2021 1:30:00 AM 7.95 46.31 0.115 6.71 13.98 11.19
5/7/2021 1:45:00 AM 7.9 46.22 0.114 6.71 13.78 11.2
5/7/2021 2:00:00 AM 7.85 46.13 0.114 6.71 13.26 11.21
5/7/2021 2:15:00 AM 7.8 46.04 0.114 6.71 12.34 11.22
5/7/2021 2:30:00 AM 7.75 45.95 0.114 6.71 12.84 11.23
5/7/2021 2:45:00 AM 7.7 45.86 0.114 6.71 11.73 11.25
5/7/2021 3:00:00 AM 7.65 45.77 0.114 6.71 12.96 11.26
5/7/2021 3:15:00 AM 7.61 45.698 0.114 6.71 12.24 11.27
5/7/2021 3:30:00 AM 7.57 45.626 0.114 6.71 12.52 11.28
5/7/2021 3:45:00 AM 7.53 45.554 0.113 6.71 11.91 11.29
5/7/2021 4:00:00 AM 7.5 45.5 0.113 6.7 11.27 11.3
5/7/2021 4:15:00 AM 7.47 45.446 0.113 6.7 11.51 11.31
5/7/2021 4:30:00 AM 7.45 45.41 0.113 6.7 11.5 11.32
5/7/2021 4:45:00 AM 7.43 45.374 0.113 6.7 11.29 11.32
5/7/2021 5:00:00 AM 7.41 45.338 0.113 6.7 8.8 11.33
5/7/2021 5:15:00 AM 7.39 45.302 0.113 6.7 11.23 11.33
5/7/2021 5:30:00 AM 7.38 45.284 0.113 6.7 11.07 11.34
5/7/2021 5:45:00 AM 7.39 45.302 0.112 6.7 10.53 11.34
5/7/2021 6:00:00 AM 7.39 45.302 0.112 6.7 9.31 11.34
5/7/2021 6:15:00 AM 7.42 45.356 0.112 6.69 7.4 11.33
5/7/2021 6:30:00 AM 7.46 45.428 0.112 6.7 7.38 11.33
5/7/2021 6:45:00 AM 7.5 45.5 0.112 6.7 7.78 11.32
5/7/2021 7:00:00 AM 7.56 45.608 0.112 6.71 8.89 11.31
5/7/2021 7:15:00 AM 7.61 45.698 0.112 6.71 9 11.29
5/7/2021 7:30:00 AM 7.65 45.77 0.111 6.72 11.11 11.28
5/7/2021 7:45:00 AM 7.69 45.842 0.111 6.72 11.21 11.27
5/7/2021 8:00:00 AM 7.75 45.95 0.111 6.72 15.56 11.26
5/7/2021 8:15:00 AM 7.84 46.112 0.111 6.72 16.07 11.23
5/7/2021 8:30:00 AM 7.94 46.292 0.111 6.73 13.83 11.21
5/7/2021 8:45:00 AM 8.05 46.49 0.111 6.73 4.77 11.17
5/7/2021 9:00:00 AM 8.11 46.598 0.111 6.73 9.34 11.15
5/7/2021 9:15:00 AM 8.19 46.742 0.111 6.73 10.2 11.14
5/7/2021 9:30:00 AM 8.26 46.868 0.11 6.73 9.43 11.11
5/7/2021 9:45:00 AM 8.35 47.03 0.11 6.73 9.02 11.09
5/7/2021 10:00:00 AM 8.43 47.174 0.11 6.73 5.64 11.06
5/7/2021 10:15:00 AM 8.52 47.336 0.11 6.73 5.96 11.04
5/7/2021 10:30:00 AM 8.62 47.516 0.11 6.74 5.57 11.02
5/7/2021 10:45:00 AM 8.7 47.66 0.11 6.74 4.98 10.99
5/7/2021 11:00:00 AM 8.75 47.75 0.11 6.73 3.72 10.97
5/7/2021 11:15:00 AM 8.79 47.822 0.11 6.73 5.21 10.95
5/7/2021 11:30:00 AM 8.78 47.804 0.109 6.73 3.77 10.95
5/7/2021 11:45:00 AM 8.74 47.732 0.109 6.73 14.55 10.95
5/7/2021 12:00:00 PM 8.7 47.66 0.109 6.73 4.66 10.97
5/7/2021 12:15:00 PM 8.65 47.57 0.109 6.73 7.04 10.98
5/7/2021 12:30:00 PM 8.62 47.516 0.109 6.72 5.36 10.99
5/7/2021 12:45:00 PM 8.61 47.498 0.109 6.72 7.95 11
5/7/2021 1:00:00 PM 8.61 47.498 0.108 6.73 7.42 11
5/7/2021 1:15:00 PM 8.6 47.48 0.108 6.72 5.51 10.99
5/7/2021 1:30:00 PM 8.61 47.498 0.108 6.72 5.43 11
5/7/2021 1:45:00 PM 8.64 47.552 0.108 6.72 6.44 10.99
5/7/2021 2:00:00 PM 8.64 47.552 0.108 6.72 6.38 10.98
5/7/2021 2:15:00 PM 8.64 47.552 0.108 6.73 11.76 10.99
5/7/2021 2:30:00 PM 8.63 47.534 0.108 6.73 7.94 10.99
5/7/2021 2:45:00 PM 8.62 47.516 0.108 6.73 6.44 10.99
5/7/2021 3:00:00 PM 8.6 47.48 0.108 6.73 6.39 10.99
5/7/2021 3:15:00 PM 8.58 47.444 0.108 6.73 5.32 11
5/7/2021 3:30:00 PM 8.58 47.444 0.108 6.74 7.02 11
5/7/2021 3:45:00 PM 8.58 47.444 0.109 6.74 8.11 11.01
5/7/2021 4:00:00 PM 8.56 47.408 0.109 6.75 7.25 11
5/7/2021 4:15:00 PM 8.54 47.372 0.11 6.76 6.66 11.01
5/7/2021 4:30:00 PM 8.52 47.336 0.11 6.76 7.04 11.01
5/7/2021 4:45:00 PM 8.48 47.264 0.111 6.76 6.01 11.01
5/7/2021 5:00:00 PM 8.48 47.264 0.111 6.77 7.22 11.02
5/7/2021 5:15:00 PM 8.45 47.21 0.112 6.77 7.59 11.03
5/7/2021 5:30:00 PM 8.43 47.174 0.112 6.78 6.8 11.03
5/7/2021 5:45:00 PM 8.43 47.174 0.112 6.78 306.97 11.04
5/7/2021 6:00:00 PM 8.43 47.174 0.111 6.79 309.43 11.04
5/7/2021 6:15:00 PM 8.43 47.174 0.111 6.79 16.52 11.04
5/7/2021 6:30:00 PM 8.4 47.12 0.111 6.79 16.56 11.04
5/7/2021 6:45:00 PM 8.37 47.066 0.112 6.79 10.42 11.05
5/7/2021 7:00:00 PM 8.33 46.994 0.111 6.79 9.81 11.06
5/7/2021 7:15:00 PM 8.29 46.922 0.111 6.79 8.76 11.07
5/7/2021 7:30:00 PM 8.24 46.832 0.111 6.79 7.27 11.08
5/7/2021 7:45:00 PM 8.19 46.742 0.111 6.79 8.57 11.1
5/7/2021 8:00:00 PM 8.15 46.67 0.111 6.78 12.96 11.11
5/7/2021 8:15:00 PM 8.13 46.634 0.111 6.78 10.43 11.12
5/7/2021 8:30:00 PM 8.1 46.58 0.111 6.78 9.53 11.13
5/7/2021 8:45:00 PM 8.08 46.544 0.11 6.77 9 11.14
5/7/2021 9:00:00 PM 8.07 46.526 0.11 6.77 8.52 11.15
5/7/2021 9:15:00 PM 8.05 46.49 0.11 6.77 11.56 11.15
5/7/2021 9:30:00 PM 8.03 46.454 0.11 6.77 7 11.15
5/7/2021 9:45:00 PM 8 46.4 0.11 6.76 7.49 11.16
5/7/2021 10:00:00 PM 7.95 46.31 0.11 6.76 7.4 11.17
5/7/2021 10:15:00 PM 7.9 46.22 0.11 6.76 7.59 11.18
5/7/2021 10:30:00 PM 7.84 46.112 0.11 6.75 7.62 11.21
5/7/2021 10:45:00 PM 7.77 45.986 0.11 6.75 8.54 11.22
5/7/2021 11:00:00 PM 7.71 45.878 0.11 6.75 8.76 11.24
5/7/2021 11:15:00 PM 7.64 45.752 0.11 6.75 8.73 11.26
5/7/2021 11:30:00 PM 7.58 45.644 0.11 6.74 9.29 11.27
5/7/2021 11:45:00 PM 7.52 45.536 0.11 6.74 9.77 11.28
5/8/2021 12:00:00 AM 7.47 45.446 0.11 6.74 9.14 11.3
5/8/2021 12:15:00 AM 7.42 45.356 0.11 6.74 9.24 11.31
5/8/2021 12:30:00 AM 7.37 45.266 0.11 6.74 12 11.33
5/8/2021 12:45:00 AM 7.32 45.176 0.11 6.73 13.25 11.34
5/8/2021 1:00:00 AM 7.28 45.104 0.11 6.73 12.84 11.35
5/8/2021 1:15:00 AM 7.25 45.05 0.109 6.73 12.93 11.36
5/8/2021 1:30:00 AM 7.21 44.978 0.109 6.73 16.97 11.37
5/8/2021 1:45:00 AM 7.18 44.924 0.109 6.73 13.04 11.38
5/8/2021 2:00:00 AM 7.15 44.87 0.109 6.72 14.33 11.38
5/8/2021 2:15:00 AM 7.12 44.816 0.109 6.72 11.38 11.39
5/8/2021 2:30:00 AM 7.11 44.798 0.109 6.72 12.99 11.4
5/8/2021 2:45:00 AM 7.1 44.78 0.109 6.72 14.79 11.4
5/8/2021 3:00:00 AM 7.1 44.78 0.108 6.72 12.49 11.4
5/8/2021 3:15:00 AM 7.1 44.78 0.108 6.71 11.99 11.4
5/8/2021 3:30:00 AM 7.1 44.78 0.108 6.72 14.65 11.4
5/8/2021 3:45:00 AM 7.11 44.798 0.108 6.71 13.73 11.4
5/8/2021 4:00:00 AM 7.1 44.78 0.108 6.71 13.68 11.4
5/8/2021 4:15:00 AM 7.1 44.78 0.108 6.71 14.66 11.4
5/8/2021 4:30:00 AM 7.09 44.762 0.108 6.71 11.6 11.41
5/8/2021 4:45:00 AM 7.09 44.762 0.108 6.71 11.54 11.41
5/8/2021 5:00:00 AM 7.09 44.762 0.108 6.71 9.53 11.41
5/8/2021 5:15:00 AM 7.08 44.744 0.108 6.71 8.54 11.41
5/8/2021 5:30:00 AM 7.07 44.726 0.107 6.7 9.72 11.41
5/8/2021 5:45:00 AM 7.07 44.726 0.107 6.7 9.19 11.42
5/8/2021 6:00:00 AM 7.07 44.726 0.107 6.7 9.49 11.42
5/8/2021 6:15:00 AM 7.08 44.744 0.107 6.7 9.63 11.43
5/8/2021 6:30:00 AM 7.09 44.762 0.107 6.7 8.05 11.42
5/8/2021 6:45:00 AM 7.12 44.816 0.107 6.7 9.74 11.42
5/8/2021 7:00:00 AM 7.13 44.834 0.107 6.71 8.87 11.42
5/8/2021 7:15:00 AM 7.16 44.888 0.107 6.71 9.22 11.42
5/8/2021 7:30:00 AM 7.18 44.924 0.106 6.71 8 11.41
5/8/2021 7:45:00 AM 7.2 44.96 0.107 6.72 9.71 11.4
5/8/2021 8:00:00 AM 7.23 45.014 0.106 6.72 10.69 11.41
5/8/2021 8:15:00 AM 7.28 45.104 0.106 6.72 12.37 11.39
5/8/2021 8:30:00 AM 7.31 45.158 0.106 6.72 12.22 11.38
5/8/2021 8:45:00 AM 7.34 45.212 0.106 6.72 12.27 11.38
5/8/2021 9:00:00 AM 7.36 45.248 0.106 6.72 10.7 11.36
5/8/2021 9:15:00 AM 7.37 45.266 0.106 6.72 10.55 11.36
5/8/2021 9:30:00 AM 7.36 45.248 0.106 6.72 10.13 11.37
5/8/2021 9:45:00 AM 7.38 45.284 0.106 6.72 9.97 11.37
5/8/2021 10:00:00 AM 7.38 45.284 0.106 6.72 9.2 11.37
5/8/2021 10:15:00 AM 7.39 45.302 0.106 6.72 8.46 11.37
5/8/2021 10:30:00 AM 7.4 45.32 0.106 6.72 9.56 11.37
5/8/2021 10:45:00 AM 7.42 45.356 0.105 6.72 8.02 11.36
5/8/2021 11:00:00 AM 7.46 45.428 0.105 6.72 9.05 11.36
5/8/2021 11:15:00 AM 7.5 45.5 0.105 6.72 8.29 11.35
5/8/2021 11:30:00 AM 7.57 45.626 0.105 6.72 7.71 11.33
5/8/2021 11:45:00 AM 7.61 45.698 0.105 6.72 4.27 11.32
5/8/2021 12:00:00 PM 7.67 45.806 0.105 6.72 3.9 11.31
5/8/2021 12:15:00 PM 7.7 45.86 0.105 6.72 3.78 11.29
5/8/2021 12:30:00 PM 7.77 45.986 0.105 6.72 3.77 11.28
5/8/2021 12:45:00 PM 7.88 46.184 0.105 6.72 3.82 11.25
5/8/2021 1:00:00 PM 7.92 46.256 0.105 6.72 3.64 11.24
5/8/2021 1:15:00 PM 8.01 46.418 0.105 6.72 3.7 11.22
5/8/2021 1:30:00 PM 8.09 46.562 0.105 6.73 3.75 11.2
5/8/2021 1:45:00 PM 8.14 46.652 0.105 6.73 3.64 11.18
5/8/2021 2:00:00 PM 8.17 46.706 0.105 6.73 3.64 11.16
5/8/2021 2:15:00 PM 8.17 46.706 0.105 6.73 2.97 11.16
5/8/2021 2:30:00 PM 8.16 46.688 0.105 6.73 2.99 11.17
5/8/2021 2:45:00 PM 8.15 46.67 0.105 6.73 2.91 11.18
5/8/2021 3:00:00 PM 8.13 46.634 0.105 6.73 3.1 11.18
5/8/2021 3:15:00 PM 8.13 46.634 0.105 6.73 3 11.19
5/8/2021 3:30:00 PM 8.19 46.742 0.105 6.73 3.01 11.17
5/8/2021 3:45:00 PM 8.17 46.706 0.105 6.73 2.96 11.17
5/8/2021 4:00:00 PM 8.17 46.706 0.105 6.73 3 11.17
5/8/2021 4:15:00 PM 8.21 46.778 0.105 6.73 2.98 11.17
5/8/2021 4:30:00 PM 8.23 46.814 0.105 6.73 3.05 11.16
5/8/2021 4:45:00 PM 8.21 46.778 0.104 6.73 14.49 11.16
5/8/2021 5:00:00 PM 8.18 46.724 0.104 6.73 3.03 11.17
5/8/2021 5:15:00 PM 8.16 46.688 0.104 6.73 2.93 11.17
5/8/2021 5:30:00 PM 8.13 46.634 0.104 6.72 3 11.18
5/8/2021 5:45:00 PM 8.09 46.562 0.104 6.72 2.99 11.19
5/8/2021 6:00:00 PM 8.04 46.472 0.104 6.72 3.03 11.2
5/8/2021 6:15:00 PM 7.99 46.382 0.104 6.72 2.95 11.21
5/8/2021 6:30:00 PM 7.94 46.292 0.104 6.71 3.04 11.22
5/8/2021 6:45:00 PM 7.89 46.202 0.104 6.71 3.05 11.24
5/8/2021 7:00:00 PM 7.85 46.13 0.104 6.71 3.13 11.26
5/8/2021 7:15:00 PM 7.8 46.04 0.104 6.71 2.99 11.27
5/8/2021 7:30:00 PM 7.75 45.95 0.104 6.71 3.11 11.29
5/8/2021 7:45:00 PM 7.71 45.878 0.103 6.7 3.05 11.3
5/8/2021 8:00:00 PM 7.66 45.788 0.103 6.7 3.01 11.32
5/8/2021 8:15:00 PM 7.61 45.698 0.103 6.7 3.26 11.33
5/8/2021 8:30:00 PM 7.57 45.626 0.103 6.7 3 11.35
5/8/2021 8:45:00 PM 7.52 45.536 0.103 6.69 3.05 11.36
5/8/2021 9:00:00 PM 7.48 45.464 0.103 6.69 2.96 11.38
5/8/2021 9:15:00 PM 7.43 45.374 0.103 6.69 3.03 11.39
5/8/2021 9:30:00 PM 7.39 45.302 0.103 6.69 2.98 11.4
5/8/2021 9:45:00 PM 7.35 45.23 0.103 6.69 2.93 11.41
5/8/2021 10:00:00 PM 7.31 45.158 0.103 6.69 2.98 11.43
5/8/2021 10:15:00 PM 7.27 45.086 0.103 6.69 2.93 11.44
5/8/2021 10:30:00 PM 7.24 45.032 0.103 6.68 3.05 11.45
5/8/2021 10:45:00 PM 7.21 44.978 0.103 6.68 2.93 11.46
5/8/2021 11:00:00 PM 7.18 44.924 0.103 6.68 3.02 11.47
5/8/2021 11:15:00 PM 7.14 44.852 0.103 6.68 2.97 11.48
5/8/2021 11:30:00 PM 7.11 44.798 0.103 6.68 2.94 11.49
5/8/2021 11:45:00 PM 7.06 44.708 0.103 6.68 2.93 11.5
5/9/2021 12:00:00 AM 7.02 44.636 0.103 6.67 2.93 11.52
5/9/2021 12:15:00 AM 6.97 44.546 0.103 6.67 2.89 11.53
5/9/2021 12:30:00 AM 6.93 44.474 0.102 6.67 2.91 11.53
5/9/2021 12:45:00 AM 6.89 44.402 0.102 6.67 2.84 11.55
5/9/2021 1:00:00 AM 6.86 44.348 0.102 6.67 2.82 11.56
5/9/2021 1:15:00 AM 6.82 44.276 0.102 6.67 2.89 11.57
5/9/2021 1:30:00 AM 6.79 44.222 0.102 6.66 2.89 11.59
5/9/2021 1:45:00 AM 6.76 44.168 0.102 6.67 2.87 11.6
5/9/2021 2:00:00 AM 6.73 44.114 0.102 6.66 2.88 11.6
5/9/2021 2:15:00 AM 6.7 44.06 0.102 6.66 2.94 11.61
5/9/2021 2:30:00 AM 6.68 44.024 0.102 6.66 2.92 11.61
5/9/2021 2:45:00 AM 6.66 43.988 0.102 6.66 2.87 11.62
5/9/2021 3:00:00 AM 6.63 43.934 0.102 6.66 2.89 11.62
5/9/2021 3:15:00 AM 6.61 43.898 0.102 6.66 2.87 11.64
5/9/2021 3:30:00 AM 6.59 43.862 0.102 6.66 2.83 11.65
5/9/2021 3:45:00 AM 6.57 43.826 0.102 6.66 2.91 11.64
5/9/2021 4:00:00 AM 6.55 43.79 0.102 6.66 2.88 11.65
5/9/2021 4:15:00 AM 6.53 43.754 0.102 6.66 2.96 11.65
5/9/2021 4:30:00 AM 6.51 43.718 0.102 6.66 2.91 11.66
5/9/2021 4:45:00 AM 6.51 43.718 0.102 6.66 2.89 11.67
5/9/2021 5:00:00 AM 6.51 43.718 0.102 6.65 2.9 11.66
5/9/2021 5:15:00 AM 6.51 43.718 0.101 6.66 2.96 11.66
5/9/2021 5:30:00 AM 6.51 43.718 0.101 6.66 2.95 11.66
5/9/2021 5:45:00 AM 6.52 43.736 0.101 6.65 2.86 11.67
5/9/2021 6:00:00 AM 6.53 43.754 0.101 6.66 2.88 11.67
5/9/2021 6:15:00 AM 6.55 43.79 0.101 6.66 2.93 11.66
5/9/2021 6:30:00 AM 6.58 43.844 0.101 6.66 2.82 11.65
5/9/2021 6:45:00 AM 6.61 43.898 0.101 6.66 2.83 11.64
5/9/2021 7:00:00 AM 6.65 43.97 0.101 6.66 2.85 11.64
5/9/2021 7:15:00 AM 6.69 44.042 0.101 6.67 2.86 11.64
5/9/2021 7:30:00 AM 6.75 44.15 0.101 6.66 2.91 11.62
5/9/2021 7:45:00 AM 6.81 44.258 0.101 6.67 2.83 11.6
5/9/2021 8:00:00 AM 6.88 44.384 0.101 6.67 2.85 11.57
5/9/2021 8:15:00 AM 6.93 44.474 0.101 6.67 2.81 11.57
5/9/2021 8:30:00 AM 6.97 44.546 0.101 6.67 2.83 11.54
5/9/2021 8:45:00 AM 6.99 44.582 0.101 6.67 2.83 11.53
5/9/2021 9:00:00 AM 7.01 44.618 0.101 6.67 2.84 11.53
5/9/2021 9:15:00 AM 7.01 44.618 0.101 6.67 2.81 11.52
5/9/2021 9:30:00 AM 7.01 44.618 0.1 6.67 2.85 11.51
5/9/2021 9:45:00 AM 7 44.6 0.1 6.68 2.85 11.52
5/9/2021 10:00:00 AM 6.98 44.564 0.1 6.68 2.74 11.53
5/9/2021 10:15:00 AM 6.96 44.528 0.1 6.67 2.91 11.53
5/9/2021 10:30:00 AM 6.93 44.474 0.1 6.67 3.15 11.53
5/9/2021 10:45:00 AM 6.87 44.366 0.1 6.67 3 11.55
5/9/2021 11:00:00 AM 6.77 44.186 0.099 6.67 2.91 11.56
5/9/2021 11:15:00 AM -99999.99 -179968 -99999.99 -99999.99 -99999.99 -99999.99
5/10/2021 7:00:00 AM 6.29 43.322 0.092 6.72 102.74 11.75
5/10/2021 7:15:00 AM 6.32 43.376 0.086 6.72 158.68 11.76
5/10/2021 7:30:00 AM 6.38 43.484 0.081 6.72 37 11.73
5/10/2021 7:45:00 AM 6.41 43.538 0.082 6.71 81.58 11.73
5/10/2021 8:00:00 AM 6.46 43.628 0.082 6.71 213.11 11.71
5/10/2021 8:15:00 AM 6.52 43.736 0.082 6.71 99.31 11.7
5/10/2021 8:30:00 AM 6.59 43.862 0.082 6.71 157.04 11.68
5/10/2021 8:45:00 AM 6.68 44.024 0.095 6.71 65.8 11.66
5/10/2021 9:00:00 AM 6.78 44.204 0.095 6.7 197.97 11.63
5/10/2021 9:15:00 AM 6.89 44.402 0.094 6.71 148.26 11.6
5/10/2021 9:30:00 AM 7.01 44.618 0.094 6.7 105 11.57
5/10/2021 9:45:00 AM 7.12 44.816 0.093 6.7 142.47 11.53
5/10/2021 10:00:00 AM 7.23 45.014 0.093 6.69 238.1 11.5
5/10/2021 10:15:00 AM 7.36 45.248 0.092 6.69 132.86 11.47
5/10/2021 10:30:00 AM 7.43 45.374 0.091 6.69 128.8 11.45
5/10/2021 10:45:00 AM 7.53 45.554 0.09 6.69 155.9 11.41
5/10/2021 11:00:00 AM 7.52 45.536 0.09 6.68 127.32 11.41
5/10/2021 11:15:00 AM 7.58 45.644 0.089 6.68 236.56 11.4
5/10/2021 11:30:00 AM 7.58 45.644 0.088 6.67 84.56 11.39
5/10/2021 11:45:00 AM 7.58 45.644 0.087 6.66 69.57 11.39
5/10/2021 12:00:00 PM 7.6 45.68 0.087 6.66 51.64 11.39
5/10/2021 12:15:00 PM 7.7 45.86 0.086 6.66 80.79 11.37
5/10/2021 12:30:00 PM 7.78 46.004 0.086 6.65 75.34 11.34
5/10/2021 12:45:00 PM 7.88 46.184 0.085 6.65 147.53 11.3
5/10/2021 1:00:00 PM 8.06 46.508 0.084 6.64 133.24 11.26
5/10/2021 1:15:00 PM 8.07 46.526 0.084 6.64 122.57 11.24
5/10/2021 1:30:00 PM 8.03 46.454 0.083 6.63 171.84 11.25
5/10/2021 1:45:00 PM 8.03 46.454 0.083 6.63 82.75 11.26
5/10/2021 2:00:00 PM 8.1 46.58 0.082 6.62 50.72 11.23
5/10/2021 2:15:00 PM 8.18 46.724 0.082 6.62 126.35 11.21
5/10/2021 2:30:00 PM 8.19 46.742 0.081 6.61 123.45 11.21
5/10/2021 2:45:00 PM 8.24 46.832 0.081 6.61 232.63 11.19
5/10/2021 3:00:00 PM 8.21 46.778 0.08 6.61 159.16 11.2
5/11/2021 7:15:00 AM 7.41 45.338 0.068 6.42 20.87 11.48
5/11/2021 7:30:00 AM 7.44 45.392 0.067 6.42 61.72 11.47
5/11/2021 7:45:00 AM 7.48 45.464 0.067 6.41 46.28 11.46
5/11/2021 8:00:00 AM 7.54 45.572 0.067 6.42 50.61 11.44
5/11/2021 8:15:00 AM 7.6 45.68 0.067 6.41 51.37 11.42
5/11/2021 8:30:00 AM 7.67 45.806 0.067 6.41 83.64 11.4
5/11/2021 8:45:00 AM 7.74 45.932 0.067 6.43 36.99 11.38
5/11/2021 9:00:00 AM 7.79 46.022 0.067 6.43 57 11.36
5/11/2021 9:15:00 AM 7.83 46.094 0.067 6.41 51.07 11.35
5/11/2021 9:30:00 AM 7.95 46.31 0.067 6.42 48.63 11.32
5/11/2021 9:45:00 AM 8.01 46.418 0.067 6.4 45.41 11.31
5/11/2021 10:00:00 AM 8.04 46.472 0.067 6.41 224.42 11.29
5/11/2021 10:15:00 AM 8.07 46.526 0.067 6.41 48.46 11.29
5/11/2021 10:30:00 AM 8.17 46.706 0.066 6.41 57.74 11.26
5/11/2021 10:45:00 AM 8.27 46.886 0.066 6.41 54.21 11.23
5/11/2021 11:00:00 AM 8.45 47.21 0.066 6.4 30.84 11.18
5/11/2021 11:15:00 AM 8.52 47.336 0.066 6.41 150.72 11.15
5/11/2021 11:30:00 AM 8.49 47.282 0.066 6.4 360.77 11.16
5/11/2021 11:45:00 AM 8.52 47.336 0.066 6.41 387.94 11.15
5/11/2021 12:00:00 PM 8.53 47.354 0.066 6.41 540.75 11.14
5/11/2021 12:15:00 PM 8.52 47.336 0.066 6.4 202.56 11.14
5/11/2021 12:30:00 PM 8.55 47.39 0.066 6.41 71.96 11.13
5/11/2021 12:45:00 PM 8.65 47.57 0.066 6.42 192.51 11.1
5/11/2021 1:00:00 PM 8.74 47.732 0.066 6.41 582 11.08
5/11/2021 1:15:00 PM -99999.99 -179968 -99999.99 -99999.99 -99999.99 -99999.99
5/11/2021 1:30:00 PM 8.81 47.858 0.066 6.42 199.67 11.05
5/11/2021 1:45:00 PM 8.8 47.84 0.066 6.42 467.25 11.07
5/11/2021 2:00:00 PM 8.77 47.786 0.066 6.42 38.52 11.07
5/11/2021 2:15:00 PM 8.73 47.714 0.065 6.41 37.61 11.08
5/11/2021 2:30:00 PM 8.69 47.642 0.065 6.41 58.11 11.09
5/11/2021 2:45:00 PM 8.74 47.732 0.065 6.41 41.12 11.08
5/11/2021 3:00:00 PM 8.75 47.75 0.065 6.41 70.2 11.07
5/11/2021 3:30:00 PM 8.83 47.894 0.065 6.4 31.14 11.05
5/11/2021 3:45:00 PM 8.81 47.858 0.065 6.41 56.36 11.05
5/11/2021 4:00:00 PM 8.75 47.75 0.065 6.43 39.29 11.07
5/11/2021 4:15:00 PM 8.7 47.66 0.065 6.42 24.49 11.08
5/11/2021 4:30:00 PM 8.67 47.606 0.065 6.4 33.74 11.1
5/11/2021 4:45:00 PM 8.63 47.534 0.065 6.41 106.12 11.11
5/11/2021 5:00:00 PM 8.58 47.444 0.065 6.4 47.32 11.12
5/11/2021 5:15:00 PM 8.54 47.372 0.065 6.4 33.45 11.14
5/11/2021 5:30:00 PM 8.48 47.264 0.065 6.39 45 11.15
5/11/2021 5:45:00 PM 8.41 47.138 0.065 6.39 33.83 11.17
5/11/2021 6:00:00 PM 8.35 47.03 0.065 6.4 36.13 11.19
5/11/2021 6:15:00 PM 8.28 46.904 0.065 6.38 35.6 11.22
5/11/2021 6:30:00 PM 8.21 46.778 0.065 6.37 86.04 11.24
5/11/2021 6:45:00 PM 8.16 46.688 0.065 6.38 28.02 11.26
5/11/2021 7:00:00 PM 8.11 46.598 0.065 6.36 40.95 11.27
5/12/2021 8:45:00 AM 7.51 45.518 0.064 6.35 4.31 11.51
5/12/2021 9:00:00 AM 7.62 45.716 0.064 6.36 4.37 11.48
5/12/2021 9:15:00 AM 7.74 45.932 0.064 6.35 4.27 11.45
5/12/2021 9:30:00 AM 7.86 46.148 0.064 6.36 4.12 11.41
5/12/2021 9:45:00 AM 8 46.4 0.064 6.37 4.31 11.37
5/12/2021 10:00:00 AM 8.14 46.652 0.064 6.37 4.31 11.33
5/12/2021 10:15:00 AM 8.3 46.94 0.064 6.36 4.33 11.28
5/12/2021 10:30:00 AM 8.46 47.228 0.064 6.37 4.36 11.23
5/12/2021 10:45:00 AM 8.63 47.534 0.064 6.37 4.46 11.19
5/12/2021 11:00:00 AM 8.76 47.768 0.064 6.38 4.31 11.15
5/12/2021 12:30:00 PM 9.06 48.308 0.064 6.39 4.91 11.05
5/12/2021 12:45:00 PM 9.16 48.488 0.064 6.38 5.1 11.03
5/12/2021 1:00:00 PM 9.25 48.65 0.064 6.37 5.23 11
5/17/2021 7:30:00 AM 8.18 46.724 0.074 6.48 51.03 11.3
5/17/2021 7:45:00 AM 8.29 46.922 0.074 6.48 58.31 11.27
5/17/2021 8:00:00 AM 8.41 47.138 0.074 6.48 59 11.24
5/17/2021 8:15:00 AM 8.52 47.336 0.074 6.49 51.3 11.21
5/17/2021 8:30:00 AM 8.64 47.552 0.074 6.49 49.12 11.18
5/17/2021 8:45:00 AM 8.75 47.75 0.074 6.49 68.54 11.15
5/17/2021 9:00:00 AM 8.86 47.948 0.074 6.49 56.74 11.12
5/17/2021 9:15:00 AM 8.98 48.164 0.074 6.5 119.15 11.08
5/17/2021 9:30:00 AM 9.11 48.398 0.074 6.49 63.16 11.05
5/17/2021 9:45:00 AM 9.26 48.668 0.074 6.49 66.33 11.01
5/17/2021 10:00:00 AM 9.38 48.884 0.074 6.5 42.21 10.98
5/17/2021 10:15:00 AM 9.54 49.172 0.074 6.5 54.79 10.94
5/17/2021 10:30:00 AM 9.71 49.478 0.074 6.5 24.86 10.89
5/17/2021 10:45:00 AM 9.91 49.838 0.074 6.5 25.52 10.84
5/17/2021 11:00:00 AM 10.1 50.18 0.074 6.5 17.37 10.79
5/17/2021 11:15:00 AM 10.3 50.54 0.074 6.5 97.52 10.74
5/17/2021 11:30:00 AM 10.45 50.81 0.074 6.51 15.81 10.7
5/17/2021 11:45:00 AM 10.6 51.08 0.074 6.51 19.83 10.66
5/17/2021 12:00:00 PM 10.68 51.224 0.074 6.51 18.13 10.62
5/17/2021 12:15:00 PM 10.8 51.44 0.074 6.51 60.1 10.6
5/17/2021 12:30:00 PM 10.94 51.692 0.074 6.51 18.25 10.57
5/17/2021 12:45:00 PM 11.08 51.944 0.074 6.51 43.78 10.53
5/17/2021 1:00:00 PM 11.18 52.124 0.074 6.51 68.53 10.5
5/18/2021 8:30:00 AM 9.34 48.812 0.076 6.49 4.52 11.01
5/18/2021 8:45:00 AM 9.46 49.028 0.076 6.49 6.04 10.97
5/18/2021 9:00:00 AM 9.61 49.298 0.076 6.5 5.95 10.95
5/18/2021 9:15:00 AM 9.76 49.568 0.076 6.5 5.82 10.9
5/18/2021 9:30:00 AM 9.95 49.91 0.076 6.51 6.02 10.85
5/18/2021 9:45:00 AM 10.15 50.27 0.076 6.52 4.36 10.8
5/18/2021 10:00:00 AM 10.34 50.612 0.076 6.52 7.34 10.76
5/18/2021 10:15:00 AM 10.54 50.972 0.076 6.52 6.69 10.7
5/18/2021 10:30:00 AM 10.76 51.368 0.076 6.52 6 10.65
5/18/2021 10:45:00 AM 10.99 51.782 0.076 6.53 5.52 10.59
5/18/2021 11:00:00 AM 11.01 51.818 0.076 6.52 6.47 10.56
5/18/2021 11:15:00 AM 10.97 51.746 0.076 6.52 8.59 10.56
5/18/2021 11:30:00 AM 10.85 51.53 0.076 6.52 15.21 10.59
5/18/2021 11:45:00 AM 10.79 51.422 0.076 6.52 7.2 10.63
5/18/2021 12:00:00 PM 10.92 51.656 0.076 6.53 5.54 10.6
5/18/2021 12:15:00 PM 11.08 51.944 0.075 6.53 8.94 10.56
5/18/2021 12:30:00 PM 11.26 52.268 0.076 6.53 13.91 10.5
5/18/2021 12:45:00 PM 11.4 52.52 0.076 6.53 4.01 10.47
5/18/2021 1:00:00 PM 11.58 52.844 0.076 6.53 11.85 10.43
5/18/2021 1:15:00 PM 11.61 52.898 0.076 6.54 15.09 10.41
5/18/2021 1:30:00 PM 11.6 52.88 0.076 6.54 14.52 10.41
5/18/2021 1:45:00 PM 11.57 52.826 0.076 6.53 5.79 10.41
5/18/2021 2:00:00 PM 11.55 52.79 0.076 6.53 7.85 10.41
5/18/2021 2:15:00 PM 11.5 52.7 0.076 6.53 8.42 10.42
5/18/2021 2:30:00 PM 11.45 52.61 0.076 6.53 11.15 10.43
5/18/2021 2:45:00 PM 11.44 52.592 0.076 6.53 9.96 10.43
5/18/2021 3:00:00 PM 11.45 52.61 0.076 6.53 8.52 10.43
5/18/2021 3:15:00 PM 11.43 52.574 0.076 6.53 12.39 10.43
5/18/2021 3:30:00 PM 11.42 52.556 0.076 6.53 12.57 10.44
5/18/2021 3:45:00 PM 11.44 52.592 0.076 6.53 12.88 10.43
5/18/2021 4:00:00 PM 11.49 52.682 0.076 6.54 12.2 10.41
5/18/2021 4:15:00 PM 11.53 52.754 0.076 6.54 12.26 10.4
5/18/2021 4:30:00 PM 11.55 52.79 0.076 6.53 12.11 10.39
5/18/2021 4:45:00 PM 11.54 52.772 0.077 6.53 12.14 10.4
5/18/2021 5:00:00 PM 11.52 52.736 0.077 6.53 11.53 10.4
5/18/2021 5:15:00 PM 11.47 52.646 0.077 6.53 11.58 10.4
5/18/2021 5:30:00 PM 11.42 52.556 0.077 6.52 11.59 10.42
5/18/2021 5:45:00 PM 11.37 52.466 0.077 6.52 11.92 10.43
5/18/2021 6:00:00 PM 11.31 52.358 0.077 6.51 11.52 10.44
5/18/2021 6:15:00 PM 11.24 52.232 0.077 6.51 11.25 10.46
5/18/2021 6:30:00 PM 11.17 52.106 0.077 6.5 11.16 10.47
5/18/2021 6:45:00 PM 11.1 51.98 0.077 6.5 11.22 10.49
5/18/2021 7:00:00 PM 11.03 51.854 0.077 6.5 11.1 10.5
5/25/2021 11:30:00 AM 12.99 55.382 0.092 6.66 9.03 10.01
5/25/2021 11:45:00 AM 13.14 55.652 0.092 6.66 9.34 9.97
5/25/2021 12:00:00 PM 13.29 55.922 0.092 6.66 9.18 9.94
5/25/2021 12:15:00 PM 13.47 56.246 0.092 6.66 9.4 9.9
5/25/2021 12:30:00 PM 13.63 56.534 0.092 6.66 9.54 9.85
5/25/2021 12:45:00 PM 13.76 56.768 0.092 6.66 9.45 9.82
5/25/2021 1:00:00 PM 13.87 56.966 0.092 6.66 9.55 9.79
5/27/2021 10:15:00 AM 13.06 55.508 0.096 6.69 14.04 9.94
5/27/2021 10:30:00 AM 13.13 55.634 0.096 6.69 13.97 9.92
5/27/2021 10:45:00 AM 13.21 55.778 0.096 6.69 15.08 9.9
5/27/2021 11:00:00 AM 13.32 55.976 0.097 6.69 15.28 9.88
5/28/2021 10:45:00 AM 11.21 52.178 0.098 6.69 24.68 10.31
5/28/2021 11:00:00 AM 11.22 52.196 0.098 6.68 24.65 10.3
5/29/2021 9:15:00 AM 9.89 49.802 0.115 6.91 42.77 10.68
5/29/2021 9:30:00 AM 9.91 49.838 0.115 6.91 42.35 10.67
5/29/2021 9:45:00 AM 9.92 49.856 0.115 6.91 38.09 10.68
5/29/2021 10:00:00 AM 9.93 49.874 0.115 6.91 38.83 10.68
5/29/2021 10:15:00 AM 9.92 49.856 0.115 6.91 39.79 10.68
5/29/2021 10:30:00 AM 9.93 49.874 0.115 6.91 39.93 10.68
5/29/2021 10:45:00 AM 9.93 49.874 0.116 6.91 42.41 10.68
5/29/2021 11:00:00 AM 9.93 49.874 0.116 6.91 41.89 10.68
5/29/2021 11:15:00 AM 9.93 49.874 0.116 6.91 40.69 10.68
5/29/2021 11:30:00 AM 9.93 49.874 0.116 6.9 42.57 10.68
5/29/2021 11:45:00 AM 9.92 49.856 0.116 6.9 42.88 10.68
5/29/2021 12:00:00 PM 9.92 49.856 0.116 6.9 43.29 10.69
5/29/2021 12:15:00 PM 9.92 49.856 0.116 6.9 43.69 10.68
5/29/2021 12:30:00 PM 9.91 49.838 0.116 6.9 44.76 10.69
5/29/2021 12:45:00 PM 9.91 49.838 0.116 6.89 42.7 10.69
5/29/2021 1:00:00 PM 9.91 49.838 0.116 6.89 42.26 10.69
5/29/2021 1:15:00 PM 9.9 49.82 0.116 6.89 40.55 10.69
5/29/2021 1:30:00 PM 9.9 49.82 0.116 6.89 39.38 10.69
5/29/2021 1:45:00 PM 9.9 49.82 0.116 6.88 13.75 10.7
5/29/2021 2:00:00 PM 9.89 49.802 0.116 6.89 14.12 10.7
5/29/2021 2:15:00 PM 9.89 49.802 0.116 6.88 26.3 10.7
5/29/2021 2:30:00 PM 9.89 49.802 0.116 6.88 28.55 10.7
5/29/2021 2:45:00 PM 9.88 49.784 0.116 6.88 29.52 10.7
5/29/2021 3:00:00 PM 9.88 49.784 0.116 6.87 25.44 10.71
5/29/2021 3:15:00 PM 9.87 49.766 0.117 6.87 26.72 10.7
5/29/2021 3:30:00 PM 9.88 49.784 0.117 6.87 26.67 10.71
5/29/2021 3:45:00 PM 9.88 49.784 0.117 6.87 26.7 10.7
5/29/2021 4:00:00 PM 9.88 49.784 0.117 6.87 25.04 10.7
5/29/2021 4:15:00 PM 9.87 49.766 0.117 6.87 23.39 10.71
5/29/2021 4:30:00 PM 9.86 49.748 0.117 6.87 23.13 10.71
5/29/2021 4:45:00 PM 9.85 49.73 0.117 6.87 40.46 10.72
5/29/2021 5:00:00 PM 9.85 49.73 0.117 6.86 53.05 10.72
5/29/2021 5:15:00 PM 9.83 49.694 0.117 6.86 49.92 10.72
5/29/2021 5:30:00 PM 9.81 49.658 0.117 6.86 42.4 10.72
5/29/2021 5:45:00 PM 9.79 49.622 0.117 6.86 50.31 10.73
5/29/2021 6:00:00 PM 9.77 49.586 0.117 6.86 49.83 10.74
5/29/2021 6:15:00 PM 9.75 49.55 0.116 6.86 50.08 10.75
5/29/2021 6:30:00 PM 9.73 49.514 0.117 6.85 49.85 10.76
5/29/2021 6:45:00 PM 9.72 49.496 0.117 6.85 51.28 10.75
5/29/2021 7:00:00 PM 9.7 49.46 0.117 6.85 50.51 10.77
5/30/2021 8:15:00 AM 9.19 48.542 0.117 6.82 47.66 10.93
5/30/2021 8:30:00 AM 9.21 48.578 0.117 6.82 47.59 10.93
5/30/2021 8:45:00 AM 9.23 48.614 0.117 6.82 48.36 10.92
5/30/2021 9:00:00 AM 9.24 48.632 0.117 6.81 48.56 10.92
5/30/2021 9:15:00 AM 9.25 48.65 0.117 6.82 47.95 10.91
5/30/2021 9:30:00 AM 9.26 48.668 0.117 6.81 47.54 10.91
5/30/2021 9:45:00 AM 9.27 48.686 0.117 6.81 47.25 10.91
5/30/2021 10:00:00 AM 9.27 48.686 0.117 6.81 48.98 10.91
5/30/2021 10:15:00 AM 9.28 48.704 0.117 6.81 47.86 10.91
5/30/2021 10:30:00 AM 9.29 48.722 0.117 6.81 47.98 10.91
5/30/2021 10:45:00 AM 9.3 48.74 0.117 6.81 47.44 10.91
5/30/2021 11:00:00 AM 9.31 48.758 0.117 6.81 48.71 10.9
5/30/2021 11:15:00 AM 9.32 48.776 0.117 6.81 48.1 10.9
5/30/2021 11:30:00 AM 9.33 48.794 0.117 6.81 47.64 10.9
5/30/2021 11:45:00 AM 9.33 48.794 0.116 6.81 49.36 10.9
5/30/2021 12:00:00 PM 9.34 48.812 0.116 6.81 50.07 10.9
5/30/2021 12:15:00 PM 9.34 48.812 0.116 6.81 48.26 10.9
5/30/2021 12:30:00 PM 9.35 48.83 0.116 6.81 48.59 10.89
5/30/2021 12:45:00 PM 9.36 48.848 0.116 6.81 48.29 10.89
5/30/2021 1:00:00 PM 9.36 48.848 0.116 6.81 48.28 10.89
5/30/2021 1:15:00 PM 9.37 48.866 0.116 6.81 49.79 10.89
5/30/2021 1:30:00 PM 9.39 48.902 0.116 6.81 48.02 10.89
5/30/2021 1:45:00 PM 9.41 48.938 0.116 6.81 49.47 10.88
5/30/2021 2:00:00 PM 9.42 48.956 0.116 6.81 51.21 10.87
5/30/2021 2:15:00 PM 9.43 48.974 0.116 6.81 47.96 10.87
5/30/2021 2:30:00 PM 9.44 48.992 0.116 6.81 49.29 10.87
5/30/2021 2:45:00 PM 9.44 48.992 0.115 6.8 49.47 10.87
5/30/2021 3:00:00 PM 9.43 48.974 0.114 6.8 48.54 10.87
5/30/2021 3:15:00 PM 9.43 48.974 0.113 6.8 47.96 10.87
5/30/2021 3:30:00 PM 9.43 48.974 0.113 6.79 49.69 10.87
5/30/2021 3:45:00 PM 9.45 49.01 0.113 6.79 49.84 10.86
5/30/2021 4:00:00 PM 9.47 49.046 0.113 6.8 51.24 10.85
5/30/2021 4:15:00 PM 9.5 49.1 0.114 6.81 55.45 10.84
5/30/2021 4:30:00 PM 9.53 49.154 0.116 6.83 56.13 10.84
5/30/2021 4:45:00 PM 9.55 49.19 0.117 6.85 56.71 10.83
5/30/2021 5:00:00 PM 9.58 49.244 0.119 6.87 58.32 10.83
5/30/2021 5:15:00 PM 9.59 49.262 0.121 6.89 56.56 10.83
5/30/2021 5:30:00 PM 9.61 49.298 0.122 6.89 56.64 10.82
5/30/2021 5:45:00 PM 9.62 49.316 0.122 6.9 56.18 10.82
5/30/2021 6:00:00 PM 9.63 49.334 0.121 6.91 59.06 10.82
5/30/2021 6:15:00 PM 9.64 49.352 0.121 6.92 57.9 10.82
5/30/2021 6:30:00 PM 9.64 49.352 0.121 6.93 55.96 10.82
5/30/2021 6:45:00 PM 9.65 49.37 0.12 6.94 57.39 10.81
5/30/2021 7:00:00 PM 9.64 49.352 0.12 6.94 57.04 10.81
5/31/2021 9:30:00 AM 9.75 49.55 0.118 6.86 58.17 10.84
5/31/2021 9:45:00 AM 9.83 49.694 0.118 6.86 47.92 10.82
5/31/2021 10:00:00 AM 9.93 49.874 0.118 6.86 45.9 10.8
5/31/2021 10:15:00 AM 10.01 50.018 0.118 6.86 46.51 10.78
5/31/2021 10:30:00 AM 10.11 50.198 0.118 6.86 51.29 10.75
5/31/2021 10:45:00 AM 10.21 50.378 0.118 6.86 36.46 10.72
5/31/2021 11:00:00 AM 10.34 50.612 0.118 6.86 36.95 10.69
5/31/2021 11:15:00 AM 10.47 50.846 0.118 6.86 36.99 10.65
5/31/2021 11:30:00 AM 10.6 51.08 0.118 6.86 35.77 10.62
5/31/2021 11:45:00 AM 10.73 51.314 0.118 6.86 36.02 10.59
5/31/2021 12:00:00 PM 10.84 51.512 0.118 6.86 32.95 10.55
5/31/2021 12:15:00 PM 10.95 51.71 0.118 6.86 33.44 10.52
5/31/2021 12:30:00 PM 11.04 51.872 0.118 6.86 35.49 10.49
5/31/2021 12:45:00 PM 11.13 52.034 0.118 6.87 35.8 10.47
5/31/2021 1:00:00 PM 11.21 52.178 0.118 6.86 34.19 10.45
5/31/2021 1:15:00 PM 11.28 52.304 0.118 6.86 32.62 10.43
5/31/2021 1:30:00 PM 11.34 52.412 0.118 6.87 32.79 10.41
5/31/2021 1:45:00 PM 11.39 52.502 0.118 6.87 32.71 10.4
5/31/2021 2:00:00 PM 11.44 52.592 0.118 6.86 33.6 10.38
5/31/2021 2:15:00 PM 11.49 52.682 0.118 6.87 32.84 10.37
5/31/2021 2:30:00 PM 11.52 52.736 0.118 6.87 32.79 10.36
5/31/2021 2:45:00 PM 11.55 52.79 0.118 6.86 33.16 10.35
5/31/2021 3:00:00 PM 11.57 52.826 0.118 6.86 33.32 10.34
5/31/2021 3:15:00 PM 11.58 52.844 0.118 6.86 35.72 10.32
5/31/2021 3:30:00 PM 11.57 52.826 0.118 6.86 35.16 10.34
5/31/2021 3:45:00 PM 11.57 52.826 0.118 6.86 35.47 10.34
5/31/2021 4:00:00 PM 11.57 52.826 0.118 6.85 35.79 10.34
5/31/2021 4:15:00 PM 11.57 52.826 0.118 6.85 35.85 10.34
5/31/2021 4:30:00 PM 11.57 52.826 0.118 6.85 36.38 10.34
5/31/2021 4:45:00 PM 11.55 52.79 0.118 6.84 34.96 10.34
5/31/2021 5:00:00 PM 11.53 52.754 0.118 6.84 58.49 10.35
5/31/2021 5:15:00 PM 11.51 52.718 0.118 6.83 34.84 10.36
5/31/2021 5:30:00 PM 11.49 52.682 0.118 6.82 34.78 10.36
5/31/2021 5:45:00 PM 11.47 52.646 0.118 6.82 35.24 10.36
5/31/2021 6:00:00 PM 11.44 52.592 0.118 6.82 35.85 10.37
5/31/2021 6:15:00 PM 11.4 52.52 0.118 6.82 35.09 10.38
5/31/2021 6:30:00 PM 11.37 52.466 0.118 6.81 35.22 10.38
5/31/2021 6:45:00 PM 11.33 52.394 0.118 6.81 35.66 10.39
5/31/2021 7:00:00 PM 11.28 52.304 0.118 6.81 35.18 10.41
6/1/2021 8:00:00 AM 10.1 50.18 0.116 6.79 38.91 10.72
6/1/2021 8:15:00 AM 10.17 50.306 0.116 6.79 38.45 10.71
6/1/2021 8:30:00 AM 10.25 50.45 0.116 6.8 38.43 10.69
6/1/2021 8:45:00 AM 10.32 50.576 0.116 6.8 39.79 10.68
6/1/2021 9:00:00 AM 10.38 50.684 0.116 6.8 38.92 10.65
6/1/2021 9:15:00 AM 10.42 50.756 0.116 6.79 38.26 10.64
6/1/2021 9:30:00 AM 10.47 50.846 0.116 6.79 38.63 10.63
6/1/2021 9:45:00 AM 10.51 50.918 0.116 6.8 39.55 10.62
6/1/2021 10:00:00 AM 10.57 51.026 0.116 6.8 38.37 10.61
6/1/2021 10:15:00 AM 10.66 51.188 0.116 6.8 39.72 10.6
6/1/2021 10:30:00 AM 10.74 51.332 0.116 6.81 39.58 10.58
6/1/2021 10:45:00 AM 10.83 51.494 0.116 6.81 39.11 10.55
6/1/2021 11:00:00 AM 10.92 51.656 0.116 6.82 39.53 10.53
6/1/2021 11:15:00 AM 11 51.8 0.116 6.82 40.01 10.51
6/1/2021 11:30:00 AM 11.13 52.034 0.116 6.82 39.71 10.47
6/1/2021 11:45:00 AM 11.24 52.232 0.116 6.83 39.62 10.44
6/1/2021 12:00:00 PM 11.3 52.34 0.116 6.82 39.27 10.42
6/1/2021 12:15:00 PM 11.37 52.466 0.116 6.82 38.93 10.4
6/1/2021 12:30:00 PM 11.47 52.646 0.116 6.82 39.2 10.38
6/1/2021 12:45:00 PM 11.55 52.79 0.116 6.82 38.82 10.36
6/1/2021 1:00:00 PM 11.59 52.862 0.116 6.82 39.04 10.34
6/1/2021 1:15:00 PM 11.64 52.952 0.116 6.82 38.9 10.33
6/1/2021 1:30:00 PM 11.7 53.06 0.116 6.82 39.16 10.32
6/1/2021 1:45:00 PM 11.75 53.15 0.116 6.82 39.6 10.3
6/1/2021 2:00:00 PM 11.79 53.222 0.116 6.82 38.8 10.29
6/1/2021 2:15:00 PM 11.83 53.294 0.116 6.82 39.1 10.28
6/1/2021 2:30:00 PM 11.89 53.402 0.116 6.82 39.29 10.26
6/1/2021 2:45:00 PM 11.92 53.456 0.116 6.81 39.24 10.25
6/1/2021 3:00:00 PM 11.96 53.528 0.116 6.81 38.84 10.24
6/1/2021 3:15:00 PM 11.97 53.546 0.116 6.81 39.93 10.24
6/1/2021 3:30:00 PM 11.97 53.546 0.116 6.81 38.82 10.23
6/1/2021 3:45:00 PM 11.97 53.546 0.116 6.81 39.13 10.23
6/1/2021 4:00:00 PM 11.97 53.546 0.116 6.81 37.27 10.23
6/1/2021 4:15:00 PM 11.95 53.51 0.116 6.8 37.21 10.23
6/1/2021 4:30:00 PM 11.95 53.51 0.116 6.79 37.09 10.23
6/1/2021 4:45:00 PM 11.95 53.51 0.116 6.8 39.37 10.23
6/1/2021 5:00:00 PM 11.95 53.51 0.116 6.79 38.49 10.23
6/1/2021 5:15:00 PM 11.94 53.492 0.116 6.79 38.6 10.23
6/1/2021 5:30:00 PM 11.91 53.438 0.116 6.78 38.39 10.23
6/1/2021 5:45:00 PM 11.89 53.402 0.116 6.77 38.66 10.24
6/1/2021 6:00:00 PM 11.87 53.366 0.117 6.76 37.82 10.24
6/1/2021 6:15:00 PM 11.85 53.33 0.117 6.76 38.24 10.25
6/1/2021 6:30:00 PM 11.82 53.276 0.117 6.75 38.15 10.25
6/1/2021 6:45:00 PM 11.79 53.222 0.117 6.76 38.25 10.26
6/1/2021 7:00:00 PM 11.74 53.132 0.117 6.77 37.63 10.27
6/2/2021 8:15:00 AM 10.69 51.242 0.115 6.74 22.82 10.53
6/2/2021 8:30:00 AM 10.72 51.296 0.115 6.74 23.08 10.52
6/2/2021 8:45:00 AM 10.74 51.332 0.115 6.74 22.34 10.51
6/2/2021 9:00:00 AM 10.76 51.368 0.115 6.74 43.28 10.5
6/2/2021 9:15:00 AM 10.78 51.404 0.114 6.74 37.35 10.5
6/2/2021 9:30:00 AM 10.8 51.44 0.114 6.74 36.77 10.5
6/2/2021 9:45:00 AM 10.82 51.476 0.114 6.75 36.37 10.5
6/2/2021 10:00:00 AM 10.84 51.512 0.114 6.75 38.4 10.49
6/2/2021 10:15:00 AM 10.86 51.548 0.114 6.74 36.16 10.49
6/2/2021 10:30:00 AM 10.88 51.584 0.114 6.74 36.12 10.48
6/2/2021 10:45:00 AM 10.9 51.62 0.114 6.74 7.01 10.48
6/2/2021 11:00:00 AM 10.92 51.656 0.114 6.76 7.26 10.47
6/2/2021 11:15:00 AM 10.95 51.71 0.114 6.77 7.76 10.47
6/2/2021 11:30:00 AM 10.97 51.746 0.114 6.76 7.68 10.46
6/2/2021 11:45:00 AM 11 51.8 0.114 6.75 7.82 10.45
6/2/2021 12:00:00 PM 11.03 51.854 0.114 6.75 7.93 10.44
6/2/2021 12:15:00 PM 11.06 51.908 0.114 6.74 7.71 10.43
6/2/2021 12:30:00 PM 11.07 51.926 0.114 6.74 7.66 10.42
6/2/2021 12:45:00 PM 11.08 51.944 0.114 6.74 7.74 10.42
6/2/2021 1:00:00 PM 11.1 51.98 0.114 6.74 7.77 10.42
6/2/2021 1:15:00 PM 11.11 51.998 0.114 6.74 8.03 10.42
6/2/2021 1:30:00 PM 11.13 52.034 0.114 6.74 8.05 10.41
6/2/2021 1:45:00 PM 11.15 52.07 0.114 6.75 8.28 10.4
6/2/2021 2:00:00 PM 11.18 52.124 0.114 6.75 8 10.4
6/2/2021 2:15:00 PM 11.21 52.178 0.114 6.76 8.06 10.39
6/2/2021 2:30:00 PM 11.25 52.25 0.114 6.77 7.88 10.39
6/2/2021 2:45:00 PM 11.3 52.34 0.114 6.77 8.74 10.36
6/2/2021 3:00:00 PM 11.35 52.43 0.114 6.77 8.8 10.35
6/2/2021 3:15:00 PM 11.4 52.52 0.114 6.79 9.04 10.33
6/2/2021 3:30:00 PM 11.46 52.628 0.114 6.78 8.83 10.32
6/2/2021 3:45:00 PM 11.51 52.718 0.114 6.78 8.91 10.31
6/2/2021 4:00:00 PM 11.56 52.808 0.114 6.78 8.9 10.3
6/2/2021 4:15:00 PM 11.6 52.88 0.114 6.77 8.97 10.29
6/2/2021 4:30:00 PM 11.64 52.952 0.114 6.77 8.97 10.27
6/2/2021 4:45:00 PM 11.66 52.988 0.114 6.76 9.04 10.26
6/2/2021 5:00:00 PM 11.67 53.006 0.114 6.75 8.96 10.25
6/3/2021 8:15:00 AM 11.51 52.718 0.118 6.81 36.57 10.26
6/3/2021 8:30:00 AM 11.53 52.754 0.118 6.81 37.03 10.26
6/3/2021 8:45:00 AM 11.56 52.808 0.118 6.83 37.07 10.26
6/3/2021 9:00:00 AM 11.58 52.844 0.118 6.85 36.77 10.25
6/3/2021 9:15:00 AM 11.62 52.916 0.118 6.86 37.35 10.22
6/3/2021 9:30:00 AM 11.65 52.97 0.118 6.86 36.95 10.23
6/3/2021 9:45:00 AM 11.68 53.024 0.118 6.87 36.89 10.23
6/3/2021 10:00:00 AM 11.71 53.078 0.118 6.88 36.16 10.22
6/3/2021 10:15:00 AM 11.74 53.132 0.118 6.88 36.28 10.21
6/3/2021 10:30:00 AM 11.77 53.186 0.117 6.88 37.55 10.21
6/3/2021 10:45:00 AM 11.79 53.222 0.117 6.88 37.54 10.2
6/3/2021 11:00:00 AM 11.79 53.222 0.117 6.87 36.35 10.2
6/3/2021 11:15:00 AM 11.83 53.294 0.117 6.88 37.27 10.19
6/3/2021 11:30:00 AM 11.85 53.33 0.117 6.88 36.01 10.19
6/3/2021 11:45:00 AM 11.85 53.33 0.117 6.88 38.78 10.18
6/3/2021 12:00:00 PM 11.88 53.384 0.117 6.88 40.76 10.18
6/3/2021 12:15:00 PM 11.9 53.42 0.117 6.88 39.9 10.18
6/3/2021 12:30:00 PM 11.93 53.474 0.117 6.87 41.09 10.17
6/3/2021 12:45:00 PM 11.97 53.546 0.117 6.88 37.93 10.16
6/3/2021 1:00:00 PM 12.01 53.618 0.117 6.88 38.1 10.15
6/3/2021 1:15:00 PM 12.03 53.654 0.117 6.89 39.37 10.14
6/3/2021 1:30:00 PM 12.06 53.708 0.116 6.88 42.61 10.13
6/3/2021 1:45:00 PM 12.07 53.726 0.116 6.87 38.5 10.13
6/3/2021 2:00:00 PM 12.09 53.762 0.116 6.86 38.57 10.13
6/3/2021 2:15:00 PM 12.14 53.852 0.116 6.87 35.89 10.11
6/3/2021 2:30:00 PM 12.16 53.888 0.116 6.88 35.94 10.11
6/3/2021 2:45:00 PM 12.18 53.924 0.116 6.88 36.43 10.1
6/3/2021 3:00:00 PM 12.23 54.014 0.116 6.88 35.91 10.09
6/3/2021 3:15:00 PM 12.24 54.032 0.116 6.88 35.59 10.08
6/3/2021 3:30:00 PM 12.25 54.05 0.116 6.87 35.53 10.07
6/3/2021 3:45:00 PM 12.26 54.068 0.116 6.86 35.44 10.07
6/3/2021 4:00:00 PM 12.28 54.104 0.116 6.86 35.28 10.07
6/3/2021 4:15:00 PM 12.29 54.122 0.116 6.87 34.61 10.07
6/3/2021 4:30:00 PM 12.29 54.122 0.116 6.87 34.39 10.07
6/3/2021 4:45:00 PM 12.29 54.122 0.116 6.87 34.33 10.06
6/3/2021 5:00:00 PM 12.3 54.14 0.116 6.87 33.27 10.06
6/3/2021 5:15:00 PM 12.3 54.14 0.116 6.87 33.44 10.06
6/3/2021 5:30:00 PM 12.3 54.14 0.116 6.87 35.11 10.06
6/3/2021 5:45:00 PM 12.29 54.122 0.116 6.85 34.93 10.06
6/3/2021 6:00:00 PM 12.28 54.104 0.116 6.84 34.7 10.06
6/3/2021 6:15:00 PM 12.27 54.086 0.116 6.83 34.98 10.06
6/3/2021 6:30:00 PM 12.26 54.068 0.116 6.84 68.27 10.05
6/3/2021 6:45:00 PM 12.25 54.05 0.116 6.83 32.87 10.06
6/3/2021 7:00:00 PM 12.24 54.032 0.116 6.82 32.68 10.06
6/4/2021 8:15:00 AM 11.98 53.564 0.115 6.81 36.96 10.15
6/4/2021 8:30:00 AM 12.02 53.636 0.115 6.82 37.05 10.14
6/4/2021 8:45:00 AM 12.07 53.726 0.114 6.83 36.9 10.13
6/4/2021 9:00:00 AM 12.14 53.852 0.114 6.83 36.79 10.12
6/4/2021 9:15:00 AM 12.21 53.978 0.114 6.84 38.07 10.1
6/4/2021 9:30:00 AM 12.26 54.068 0.114 6.84 37.3 10.09
6/4/2021 9:45:00 AM 12.34 54.212 0.114 6.84 36.91 10.07
6/4/2021 10:00:00 AM 12.43 54.374 0.114 6.85 37 10.05
6/4/2021 10:15:00 AM 12.52 54.536 0.114 6.84 35.35 10.03
6/4/2021 10:30:00 AM 12.6 54.68 0.114 6.85 36.6 10.01
6/4/2021 10:45:00 AM 12.69 54.842 0.114 6.85 37.69 9.99
6/4/2021 11:00:00 AM 12.79 55.022 0.114 6.85 38.15 9.96
6/4/2021 11:30:00 AM 13.02 55.436 0.114 6.85 38.48 9.91

These are provisional data and have not been subject to a quality assurance process, but rather are the raw data reported by the instrument.
H: value is above sensor operating range
L: value is below sensor operating range
Offline: station is not reporting data
NC: parameter is not collected at site

Data Availability & Limitations

Uncertainty and potential for error can be associated with environmental monitoring data. Provisional data have not been subject to a quality assurance process, but rather are the raw data reported by the instrument. Data users are cautioned to consider carefully the provisional nature of the information before using it for decisions that concern personal or public safety or the conduct of business that involves substantial monetary or operational consequences.

Approved data are currently available by request by emailing: srbc@srbc.net. Approved data have been subject to a quality assurance process to correct for equipment or fouling drift. Data recorded during equipment malfunctions have been removed.

View Historical Stations that have been discontinued.